createdAt,value
2019-02-24T00:00:53.867Z,4.55
2019-02-24T00:01:53.875Z,4.53
2019-02-24T00:02:53.851Z,4.56
2019-02-24T00:03:54.713Z,4.48
2019-02-24T00:04:54.095Z,4.44
2019-02-24T00:05:53.581Z,4.42
2019-02-24T00:06:54.048Z,4.5
2019-02-24T00:07:54.054Z,4.38
2019-02-24T00:08:53.527Z,4.38
2019-02-24T00:09:53.773Z,4.44
2019-02-24T00:10:53.756Z,4.48
2019-02-24T00:11:53.996Z,4.48
2019-02-24T00:12:53.733Z,4.45
2019-02-24T00:13:53.729Z,4.4
2019-02-24T00:14:53.965Z,4.44
2019-02-24T00:15:53.723Z,4.34
2019-02-24T00:16:53.942Z,4.41
2019-02-24T00:17:53.931Z,4.4
2019-02-24T00:18:53.427Z,4.3
2019-02-24T00:19:53.673Z,4.26
2019-02-24T00:20:53.663Z,4.24
2019-02-24T00:21:53.644Z,4.24
2019-02-24T00:22:53.892Z,4.24
2019-02-24T00:23:53.635Z,4.2
2019-02-24T00:24:53.882Z,4.17
2019-02-24T00:25:53.619Z,4.28
2019-02-24T00:26:53.844Z,4.16
2019-02-24T00:27:53.578Z,4.17
2019-02-24T00:28:53.316Z,4.14
2019-02-24T00:29:53.816Z,4.05
2019-02-24T00:30:53.562Z,4.02
2019-02-24T00:31:53.565Z,3.99
2019-02-24T00:32:53.790Z,4.06
2019-02-24T00:33:53.777Z,3.91
2019-02-24T00:34:53.776Z,4.02
2019-02-24T00:35:53.504Z,3.87
2019-02-24T00:36:53.735Z,3.8
2019-02-24T00:37:53.503Z,3.88
2019-02-24T00:38:53.467Z,3.78
2019-02-24T00:39:53.737Z,3.8
2019-02-24T00:40:53.689Z,3.84
2019-02-24T00:41:53.435Z,3.8
2019-02-24T00:42:53.683Z,3.8
2019-02-24T00:43:53.423Z,3.84
2019-02-24T00:44:53.406Z,3.78
2019-02-24T00:45:53.432Z,3.73
2019-02-24T00:46:53.385Z,3.73
2019-02-24T00:47:53.686Z,3.62
2019-02-24T00:48:53.366Z,3.51
2019-02-24T00:49:53.356Z,3.45
2019-02-24T00:50:53.584Z,3.4
2019-02-24T00:51:53.575Z,3.47
2019-02-24T00:52:53.329Z,3.37
2019-02-24T00:53:53.555Z,3.4
2019-02-24T00:54:53.062Z,3.32
2019-02-24T00:55:53.538Z,3.32
2019-02-24T00:56:53.298Z,3.23
2019-02-24T00:57:53.277Z,3.21
2019-02-24T00:58:53.296Z,3.28
2019-02-24T00:59:53.240Z,3.19
2019-02-24T01:00:53.245Z,3.13
2019-02-24T01:01:53.234Z,3.1
2019-02-24T01:02:53.220Z,3.13
2019-02-24T01:03:53.449Z,3.1
2019-02-24T01:04:53.455Z,3.13
2019-02-24T01:05:53.190Z,3.22
2019-02-24T01:06:53.181Z,3.01
2019-02-24T01:07:53.436Z,3.03
2019-02-24T01:08:53.141Z,2.98
2019-02-24T01:09:53.136Z,3.04
2019-02-24T01:10:53.377Z,2.97
2019-02-24T01:11:53.364Z,2.89
2019-02-24T01:12:53.363Z,2.92
2019-02-24T01:13:53.994Z,2.87
2019-02-24T01:14:53.079Z,2.93
2019-02-24T01:15:53.061Z,2.77
2019-02-24T01:16:53.315Z,2.85
2019-02-24T01:17:53.315Z,2.82
2019-02-24T01:18:53.304Z,2.79
2019-02-24T01:19:53.081Z,2.86
2019-02-24T01:20:53.014Z,2.86
2019-02-24T01:21:52.992Z,2.82
2019-02-24T01:22:53.006Z,2.8
2019-02-24T01:23:52.991Z,2.68
2019-02-24T01:24:53.223Z,2.75
2019-02-24T01:25:52.952Z,2.72
2019-02-24T01:26:53.196Z,2.68
2019-02-24T01:27:53.193Z,2.61
2019-02-24T01:28:52.988Z,2.6
2019-02-24T01:29:52.966Z,2.56
2019-02-24T01:30:52.895Z,2.5
2019-02-24T01:31:53.154Z,2.46
2019-02-24T01:32:53.118Z,2.42
2019-02-24T01:33:52.912Z,2.38
2019-02-24T01:34:53.105Z,2.36
2019-02-24T01:35:53.090Z,2.46
2019-02-24T01:36:52.842Z,2.39
2019-02-24T01:37:53.076Z,2.42
2019-02-24T01:38:52.812Z,2.42
2019-02-24T01:39:52.834Z,2.51
2019-02-24T01:40:53.070Z,2.56
2019-02-24T01:41:52.821Z,2.47
2019-02-24T01:42:53.015Z,2.42
2019-02-24T01:43:52.765Z,2.44
2019-02-24T01:44:53.798Z,2.38
2019-02-24T01:45:52.986Z,2.38
2019-02-24T01:46:52.726Z,2.31
2019-02-24T01:47:52.719Z,2.38
2019-02-24T01:48:52.710Z,2.29
2019-02-24T01:49:52.689Z,2.28
2019-02-24T01:50:52.947Z,2.2
2019-02-24T01:51:52.669Z,2.14
2019-02-24T01:52:52.662Z,2.08
2019-02-24T01:53:52.664Z,2.13
2019-02-24T01:54:52.889Z,2.11
2019-02-24T01:55:52.622Z,2.08
2019-02-24T01:56:52.882Z,2.08
2019-02-24T01:57:52.433Z,2.06
2019-02-24T01:58:52.837Z,2.06
2019-02-24T01:59:52.840Z,2.13
2019-02-24T02:00:52.817Z,2.13
2019-02-24T02:01:52.562Z,2.14
2019-02-24T02:02:52.780Z,2.02
2019-02-24T02:03:52.823Z,2.24
2019-02-24T02:04:52.264Z,2.14
2019-02-24T02:05:52.787Z,2.18
2019-02-24T02:06:52.738Z,2.13
2019-02-24T02:07:52.493Z,2.11
2019-02-24T02:08:52.720Z,2.22
2019-02-24T02:09:52.724Z,2.14
2019-02-24T02:10:52.718Z,2.13
2019-02-24T02:11:52.435Z,2.15
2019-02-24T02:12:52.419Z,2.1
2019-02-24T02:13:52.665Z,2.17
2019-02-24T02:14:52.412Z,2.18
2019-02-24T02:15:52.650Z,2.18
2019-02-24T02:16:52.422Z,2.07
2019-02-24T02:17:52.374Z,2.17
2019-02-24T02:18:52.605Z,2.08
2019-02-24T02:19:52.598Z,2.06
2019-02-24T02:20:52.582Z,2.04
2019-02-24T02:21:52.599Z,2.04
2019-02-24T02:22:52.311Z,1.87
2019-02-24T02:23:52.542Z,1.81
2019-02-24T02:24:52.544Z,1.87
2019-02-24T02:25:52.282Z,1.85
2019-02-24T02:26:52.542Z,1.87
2019-02-24T02:27:52.304Z,1.89
2019-02-24T02:28:52.256Z,2
2019-02-24T02:29:52.475Z,2.02
2019-02-24T02:30:51.985Z,2.04
2019-02-24T02:31:52.461Z,2.06
2019-02-24T02:32:52.453Z,2.08
2019-02-24T02:33:52.738Z,1.95
2019-02-24T02:34:52.176Z,1.88
2019-02-24T02:35:52.168Z,1.95
2019-02-24T02:36:52.153Z,1.87
2019-02-24T02:37:52.395Z,1.76
2019-02-24T02:38:52.122Z,1.74
2019-02-24T02:39:52.119Z,1.77
2019-02-24T02:40:52.104Z,1.71
2019-02-24T02:41:51.893Z,1.74
2019-02-24T02:42:52.101Z,1.77
2019-02-24T02:43:52.336Z,1.77
2019-02-24T02:44:52.314Z,1.78
2019-02-24T02:45:52.036Z,1.71
2019-02-24T02:46:52.322Z,1.77
2019-02-24T02:47:52.292Z,1.77
2019-02-24T02:48:52.011Z,1.8
2019-02-24T02:49:51.771Z,1.78
2019-02-24T02:50:51.762Z,1.78
2019-02-24T02:51:52.220Z,1.67
2019-02-24T02:52:51.703Z,1.77
2019-02-24T02:53:52.199Z,1.74
2019-02-24T02:54:51.677Z,1.8
2019-02-24T02:55:52.188Z,1.91
2019-02-24T02:56:51.664Z,1.91
2019-02-24T02:57:52.132Z,1.91
2019-02-24T02:58:59.036Z,1.89
2019-02-24T02:59:51.887Z,1.81
2019-02-24T03:00:52.115Z,1.76
2019-02-24T03:01:52.128Z,1.81
2019-02-24T03:02:52.138Z,1.7
2019-02-24T03:03:52.100Z,1.71
2019-02-24T03:04:51.815Z,1.63
2019-02-24T03:05:51.828Z,1.58
2019-02-24T03:06:51.796Z,1.6
2019-02-24T03:07:51.535Z,1.59
2019-02-24T03:08:52.028Z,1.55
2019-02-24T03:09:51.759Z,1.55
2019-02-24T03:10:52.010Z,1.5
2019-02-24T03:11:52.010Z,1.53
2019-02-24T03:12:51.983Z,1.52
2019-02-24T03:13:51.727Z,1.5
2019-02-24T03:14:51.465Z,1.52
2019-02-24T03:15:51.701Z,1.4
2019-02-24T03:16:51.698Z,1.42
2019-02-24T03:17:51.670Z,1.48
2019-02-24T03:18:51.671Z,1.52
2019-02-24T03:19:51.646Z,1.48
2019-02-24T03:20:51.878Z,1.48
2019-02-24T03:21:51.388Z,1.45
2019-02-24T03:22:51.874Z,1.45
2019-02-24T03:23:51.838Z,1.49
2019-02-24T03:24:51.860Z,1.42
2019-02-24T03:25:51.841Z,1.45
2019-02-24T03:26:51.311Z,1.37
2019-02-24T03:27:51.557Z,1.45
2019-02-24T03:28:51.783Z,1.52
2019-02-24T03:29:51.777Z,1.45
2019-02-24T03:30:51.753Z,1.41
2019-02-24T03:31:51.558Z,1.44
2019-02-24T03:32:51.509Z,1.45
2019-02-24T03:33:51.520Z,1.42
2019-02-24T03:34:51.722Z,1.5
2019-02-24T03:35:52.012Z,1.48
2019-02-24T03:36:51.452Z,1.41
2019-02-24T03:37:51.412Z,1.41
2019-02-24T03:38:51.159Z,1.37
2019-02-24T03:39:51.151Z,1.38
2019-02-24T03:40:51.628Z,1.3
2019-02-24T03:41:51.627Z,1.3
2019-02-24T03:42:51.355Z,1.38
2019-02-24T03:43:51.612Z,1.45
2019-02-24T03:44:51.602Z,1.32
2019-02-24T03:45:51.321Z,1.38
2019-02-24T03:46:51.326Z,1.35
2019-02-24T03:47:51.313Z,1.41
2019-02-24T03:48:51.296Z,1.35
2019-02-24T03:49:51.537Z,1.38
2019-02-24T03:50:51.509Z,1.35
2019-02-24T03:51:51.535Z,1.32
2019-02-24T03:52:51.562Z,1.22
2019-02-24T03:53:51.222Z,1.22
2019-02-24T03:54:51.217Z,1.22
2019-02-24T03:55:51.458Z,1.13
2019-02-24T03:56:51.199Z,1.13
2019-02-24T03:57:51.437Z,1.05
2019-02-24T03:58:50.914Z,1.02
2019-02-24T03:59:51.168Z,1.04
2019-02-24T04:00:51.384Z,1.2
2019-02-24T04:01:51.157Z,1.17
2019-02-24T04:02:51.107Z,1.17
2019-02-24T04:03:51.149Z,1.17
2019-02-24T04:04:51.334Z,1.17
2019-02-24T04:05:52.386Z,1.14
2019-02-24T04:06:51.331Z,1.13
2019-02-24T04:07:51.069Z,1.13
2019-02-24T04:08:51.299Z,1.04
2019-02-24T04:09:50.782Z,1.04
2019-02-24T04:10:51.038Z,1.06
2019-02-24T04:11:51.260Z,1.02
2019-02-24T04:12:51.270Z,1.01
2019-02-24T04:13:51.224Z,0.96
2019-02-24T04:14:50.970Z,1.01
2019-02-24T04:15:51.209Z,0.98
2019-02-24T04:16:50.709Z,1.08
2019-02-24T04:17:50.695Z,0.98
2019-02-24T04:18:50.920Z,1.05
2019-02-24T04:19:50.673Z,0.99
2019-02-24T04:20:50.647Z,0.92
2019-02-24T04:21:50.893Z,0.96
2019-02-24T04:22:50.873Z,0.95
2019-02-24T04:23:50.881Z,0.95
2019-02-24T04:24:50.860Z,0.96
2019-02-24T04:25:51.089Z,0.99
2019-02-24T04:26:50.846Z,0.98
2019-02-24T04:27:51.052Z,1.17
2019-02-24T04:28:50.792Z,1.19
2019-02-24T04:29:51.032Z,1.22
2019-02-24T04:30:51.017Z,1.22
2019-02-24T04:31:51.035Z,1.2
2019-02-24T04:32:50.751Z,1.22
2019-02-24T04:33:50.759Z,1.24
2019-02-24T04:34:51.018Z,1.34
2019-02-24T04:35:50.459Z,1.38
2019-02-24T04:36:54.255Z,1.42
2019-02-24T04:37:50.694Z,1.44
2019-02-24T04:38:50.692Z,1.44
2019-02-24T04:39:50.908Z,1.38
2019-02-24T04:40:50.652Z,1.3
2019-02-24T04:41:50.645Z,1.24
2019-02-24T04:42:50.888Z,1.35
2019-02-24T04:43:50.856Z,1.37
2019-02-24T04:44:50.613Z,1.32
2019-02-24T04:45:50.840Z,1.4
2019-02-24T04:46:50.844Z,1.34
2019-02-24T04:47:50.638Z,1.35
2019-02-24T04:48:50.551Z,1.37
2019-02-24T04:49:50.546Z,1.26
2019-02-24T04:50:50.782Z,1.24
2019-02-24T04:51:50.525Z,1.31
2019-02-24T04:52:50.502Z,1.35
2019-02-24T04:53:50.489Z,1.31
2019-02-24T04:54:50.721Z,1.34
2019-02-24T04:55:50.224Z,1.19
2019-02-24T04:56:50.462Z,1.19
2019-02-24T04:57:50.464Z,1.23
2019-02-24T04:58:50.432Z,1.2
2019-02-24T04:59:50.663Z,1.13
2019-02-24T05:00:50.405Z,1.12
2019-02-24T05:01:50.635Z,1.04
2019-02-24T05:02:50.374Z,1.02
2019-02-24T05:03:50.374Z,1.02
2019-02-24T05:04:50.627Z,0.99
2019-02-24T05:05:50.337Z,1.06
2019-02-24T05:06:52.184Z,1.05
2019-02-24T05:07:50.079Z,1.13
2019-02-24T05:08:50.552Z,1.12
2019-02-24T05:09:50.298Z,0.98
2019-02-24T05:10:50.570Z,1.01
2019-02-24T05:11:50.314Z,1.02
2019-02-24T05:12:50.512Z,0.98
2019-02-24T05:13:50.277Z,0.96
2019-02-24T05:14:50.249Z,0.86
2019-02-24T05:15:50.232Z,0.91
2019-02-24T05:16:50.477Z,0.81
2019-02-24T05:17:50.226Z,0.88
2019-02-24T05:18:50.451Z,0.87
2019-02-24T05:19:50.451Z,0.76
2019-02-24T05:20:50.172Z,0.77
2019-02-24T05:21:50.180Z,0.77
2019-02-24T05:22:50.396Z,0.91
2019-02-24T05:23:50.401Z,0.94
2019-02-24T05:24:50.121Z,0.94
2019-02-24T05:25:49.860Z,0.87
2019-02-24T05:26:50.349Z,0.96
2019-02-24T05:27:50.323Z,0.98
2019-02-24T05:28:50.066Z,0.96
2019-02-24T05:29:50.966Z,0.95
2019-02-24T05:30:50.029Z,0.95
2019-02-24T05:31:50.035Z,0.88
2019-02-24T05:32:50.015Z,0.94
2019-02-24T05:33:50.239Z,0.87
2019-02-24T05:34:50.275Z,0.78
2019-02-24T05:35:50.258Z,0.74
2019-02-24T05:36:50.220Z,0.76
2019-02-24T05:37:50.193Z,0.78
2019-02-24T05:38:50.197Z,0.7
2019-02-24T05:39:49.934Z,0.62
2019-02-24T05:40:50.155Z,0.69
2019-02-24T05:41:50.177Z,0.58
2019-02-24T05:42:50.138Z,0.65
2019-02-24T05:43:49.887Z,0.73
2019-02-24T05:44:50.103Z,0.68
2019-02-24T05:45:49.845Z,0.69
2019-02-24T05:46:49.845Z,0.7
2019-02-24T05:47:49.827Z,0.63
2019-02-24T05:48:49.812Z,0.6
2019-02-24T05:49:49.848Z,0.69
2019-02-24T05:50:49.770Z,0.62
2019-02-24T05:51:50.036Z,0.63
2019-02-24T05:52:50.505Z,0.66
2019-02-24T05:53:50.005Z,0.69
2019-02-24T05:54:51.763Z,0.65
2019-02-24T05:55:49.731Z,0.68
2019-02-24T05:56:49.969Z,0.73
2019-02-24T05:57:49.438Z,0.69
2019-02-24T05:58:49.686Z,0.68
2019-02-24T05:59:59.774Z,0.7
2019-02-24T06:00:49.656Z,0.74
2019-02-24T06:01:49.907Z,0.77
2019-02-24T06:02:49.717Z,0.73
2019-02-24T06:03:49.618Z,0.78
2019-02-24T06:04:49.623Z,0.76
2019-02-24T06:05:49.349Z,0.7
2019-02-24T06:06:49.577Z,0.78
2019-02-24T06:07:49.574Z,0.69
2019-02-24T06:08:49.572Z,0.77
2019-02-24T06:09:49.296Z,0.74
2019-02-24T06:10:49.790Z,0.78
2019-02-24T06:11:49.777Z,0.77
2019-02-24T06:12:49.772Z,0.74
2019-02-24T06:13:49.740Z,0.77
2019-02-24T06:14:49.494Z,0.76
2019-02-24T06:15:49.727Z,0.81
2019-02-24T06:16:49.713Z,0.83
2019-02-24T06:17:49.468Z,0.92
2019-02-24T06:18:49.699Z,0.96
2019-02-24T06:19:49.435Z,0.95
2019-02-24T06:20:49.669Z,1.02
2019-02-24T06:21:49.661Z,1.02
2019-02-24T06:22:49.382Z,1.02
2019-02-24T06:23:49.612Z,1.01
2019-02-24T06:24:49.604Z,1.13
2019-02-24T06:25:49.335Z,1.2
2019-02-24T06:26:49.335Z,1.17
2019-02-24T06:27:49.334Z,1.26
2019-02-24T06:28:49.305Z,1.17
2019-02-24T06:29:49.050Z,1.17
2019-02-24T06:30:49.307Z,1.08
2019-02-24T06:31:49.551Z,1.1
2019-02-24T06:32:49.517Z,1.04
2019-02-24T06:33:49.237Z,1.14
2019-02-24T06:34:49.228Z,1.16
2019-02-24T06:35:49.478Z,1.2
2019-02-24T06:36:49.230Z,1.22
2019-02-24T06:37:49.454Z,1.17
2019-02-24T06:38:48.928Z,1.26
2019-02-24T06:39:49.169Z,1.24
2019-02-24T06:40:49.403Z,1.23
2019-02-24T06:41:49.421Z,1.28
2019-02-24T06:42:49.135Z,1.22
2019-02-24T06:43:49.168Z,1.28
2019-02-24T06:44:49.355Z,1.28
2019-02-24T06:45:48.838Z,1.28
2019-02-24T06:46:49.079Z,1.24
2019-02-24T06:47:49.345Z,1.24
2019-02-24T06:48:49.315Z,1.3
2019-02-24T06:49:49.054Z,1.35
2019-02-24T06:50:49.290Z,1.32
2019-02-24T06:51:49.297Z,1.42
2019-02-24T06:52:49.026Z,1.38
2019-02-24T06:53:48.988Z,1.48
2019-02-24T06:54:48.986Z,1.44
2019-02-24T06:55:49.225Z,1.38
2019-02-24T06:56:49.222Z,1.5
2019-02-24T06:57:48.959Z,1.44
2019-02-24T06:58:49.180Z,1.44
2019-02-24T06:59:49.177Z,1.48
2019-02-24T07:00:48.910Z,1.55
2019-02-24T07:01:48.897Z,1.59
2019-02-24T07:02:49.125Z,1.7
2019-02-24T07:03:48.626Z,1.68
2019-02-24T07:04:48.867Z,1.77
2019-02-24T07:05:48.849Z,1.77
2019-02-24T07:06:49.084Z,1.74
2019-02-24T07:07:48.823Z,1.85
2019-02-24T07:08:48.811Z,1.88
2019-02-24T07:09:49.058Z,1.81
2019-02-24T07:10:48.812Z,1.88
2019-02-24T07:11:48.790Z,1.91
2019-02-24T07:12:49.008Z,1.8
2019-02-24T07:13:49.005Z,1.89
2019-02-24T07:14:49.032Z,1.89
2019-02-24T07:15:48.733Z,1.89
2019-02-24T07:16:48.464Z,1.89
2019-02-24T07:17:48.952Z,1.94
2019-02-24T07:18:48.700Z,1.89
2019-02-24T07:19:48.678Z,1.94
2019-02-24T07:20:48.676Z,1.94
2019-02-24T07:21:48.656Z,2.02
2019-02-24T07:22:48.915Z,2.06
2019-02-24T07:23:48.886Z,2.04
2019-02-24T07:24:48.366Z,1.99
2019-02-24T07:25:48.616Z,2.07
2019-02-24T07:26:48.840Z,2.11
2019-02-24T07:27:48.841Z,2.07
2019-02-24T07:28:48.828Z,2.1
2019-02-24T07:29:48.594Z,2.17
2019-02-24T07:30:48.795Z,2.28
2019-02-24T07:31:48.542Z,2.53
2019-02-24T07:32:48.541Z,2.8
2019-02-24T07:33:48.528Z,3.62
2019-02-24T07:34:48.748Z,4.67
2019-02-24T07:35:48.512Z,5.68
2019-02-24T07:36:48.771Z,6.59
2019-02-24T07:37:48.742Z,7.39
2019-02-24T07:38:50.541Z,8.06
2019-02-24T07:39:48.456Z,8.41
2019-02-24T07:40:48.698Z,8.73
2019-02-24T07:41:48.687Z,8.89
2019-02-24T07:42:48.691Z,9.02
2019-02-24T07:43:49.231Z,9.29
2019-02-24T07:44:48.448Z,9.84
2019-02-24T07:45:48.691Z,10.28
2019-02-24T07:46:48.658Z,10.2
2019-02-24T07:47:48.649Z,10.22
2019-02-24T07:48:48.644Z,10.13
2019-02-24T07:49:48.646Z,10.56
2019-02-24T07:50:48.396Z,10.97
2019-02-24T07:51:48.644Z,11.08
2019-02-24T07:52:48.385Z,11.59
2019-02-24T07:53:48.385Z,12.31
2019-02-24T07:54:48.677Z,12.68
2019-02-24T07:55:48.629Z,13.25
2019-02-24T07:56:48.378Z,13.86
2019-02-24T07:57:48.626Z,14.32
2019-02-24T07:58:48.636Z,14.33
2019-02-24T07:59:48.629Z,14.36
2019-02-24T08:00:48.386Z,14.4
2019-02-24T08:01:48.623Z,14.43
2019-02-24T08:02:48.629Z,14.65
2019-02-24T08:03:48.615Z,14.51
2019-02-24T08:04:48.610Z,14.22
2019-02-24T08:05:48.612Z,13.92
2019-02-24T08:06:48.121Z,13.93
2019-02-24T08:07:48.364Z,13.97
2019-02-24T08:08:48.384Z,14.17
2019-02-24T08:09:49.702Z,14.28
2019-02-24T08:10:48.602Z,14.35
2019-02-24T08:11:48.617Z,14
2019-02-24T08:12:48.614Z,13.71
2019-02-24T08:13:48.422Z,13.47
2019-02-24T08:14:48.368Z,13.44
2019-02-24T08:15:48.597Z,13.2
2019-02-24T08:16:48.364Z,13.22
2019-02-24T08:17:48.595Z,13.01
2019-02-24T08:18:54.655Z,13.38
2019-02-24T08:19:48.593Z,13.75
2019-02-24T08:20:48.645Z,13.96
2019-02-24T08:21:48.616Z,13.59
2019-02-24T08:22:48.344Z,13.27
2019-02-24T08:23:48.596Z,12.73
2019-02-24T08:24:48.599Z,12.22
2019-02-24T08:25:48.394Z,12.2
2019-02-24T08:26:48.347Z,11.91
2019-02-24T08:27:48.602Z,11.94
2019-02-24T08:28:48.603Z,11.83
2019-02-24T08:29:48.596Z,12.17
2019-02-24T08:30:48.355Z,12.04
2019-02-24T08:31:48.600Z,11.7
2019-02-24T08:32:48.591Z,11.4
2019-02-24T08:33:48.602Z,11.14
2019-02-24T08:34:48.350Z,10.59
2019-02-24T08:35:48.100Z,10.19
2019-02-24T08:36:48.588Z,9.72
2019-02-24T08:37:48.350Z,9.26
2019-02-24T08:38:48.355Z,8.87
2019-02-24T08:39:48.091Z,8.53
2019-02-24T08:40:48.582Z,8.41
2019-02-24T08:41:48.585Z,8.28
2019-02-24T08:42:48.329Z,8.05
2019-02-24T08:43:48.589Z,7.93
2019-02-24T08:44:48.586Z,7.5
2019-02-24T08:45:48.581Z,7.1
2019-02-24T08:46:48.582Z,6.72
2019-02-24T08:47:48.299Z,6.48
2019-02-24T08:48:48.614Z,6.35
2019-02-24T08:49:48.062Z,6.11
2019-02-24T08:50:48.539Z,6.05
2019-02-24T08:51:48.292Z,5.89
2019-02-24T08:52:48.036Z,5.84
2019-02-24T08:53:48.552Z,5.82
2019-02-24T08:54:48.279Z,5.71
2019-02-24T08:55:48.515Z,5.72
2019-02-24T08:56:48.038Z,5.76
2019-02-24T08:57:48.261Z,5.79
2019-02-24T08:58:48.247Z,5.91
2019-02-24T08:59:48.489Z,5.97
2019-02-24T09:00:55.720Z,5.87
2019-02-24T09:01:48.498Z,5.93
2019-02-24T09:02:48.476Z,5.89
2019-02-24T09:03:48.247Z,5.94
2019-02-24T09:04:48.472Z,5.9
2019-02-24T09:05:48.219Z,5.89
2019-02-24T09:06:48.223Z,5.91
2019-02-24T09:07:48.450Z,5.97
2019-02-24T09:08:48.179Z,5.94
2019-02-24T09:09:48.425Z,6.07
2019-02-24T09:10:48.194Z,6.12
2019-02-24T09:11:48.178Z,6.38
2019-02-24T09:12:48.409Z,6.52
2019-02-24T09:13:48.410Z,6.57
2019-02-24T09:14:48.393Z,6.62
2019-02-24T09:15:47.915Z,6.74
2019-02-24T09:16:48.448Z,6.77
2019-02-24T09:17:48.657Z,6.82
2019-02-24T09:18:48.132Z,6.97
2019-02-24T09:19:48.124Z,6.93
2019-02-24T09:20:48.119Z,6.96
2019-02-24T09:21:48.357Z,6.88
2019-02-24T09:22:48.101Z,6.93
2019-02-24T09:23:48.329Z,6.95
2019-02-24T09:24:48.314Z,6.85
2019-02-24T09:25:47.816Z,6.78
2019-02-24T09:26:48.100Z,6.92
2019-02-24T09:27:47.811Z,6.85
2019-02-24T09:28:48.055Z,6.92
2019-02-24T09:29:48.039Z,7.07
2019-02-24T09:30:47.778Z,7.2
2019-02-24T09:31:48.275Z,7.28
2019-02-24T09:32:48.300Z,7.39
2019-02-24T09:33:48.263Z,7.5
2019-02-24T09:34:48.245Z,7.67
2019-02-24T09:35:47.737Z,7.82
2019-02-24T09:36:47.748Z,7.97
2019-02-24T09:37:48.243Z,7.9
2019-02-24T09:38:48.232Z,7.91
2019-02-24T09:39:47.973Z,8.06
2019-02-24T09:40:47.715Z,8.16
2019-02-24T09:41:47.954Z,8.28
2019-02-24T09:42:47.950Z,8.44
2019-02-24T09:43:48.197Z,8.42
2019-02-24T09:44:47.680Z,8.55
2019-02-24T09:45:48.177Z,8.58
2019-02-24T09:46:47.937Z,8.66
2019-02-24T09:47:51.065Z,8.74
2019-02-24T09:48:48.162Z,8.71
2019-02-24T09:49:47.896Z,8.84
2019-02-24T09:50:47.896Z,8.89
2019-02-24T09:51:47.932Z,8.95
2019-02-24T09:52:47.879Z,9
2019-02-24T09:53:48.135Z,9.08
2019-02-24T09:54:47.902Z,9.02
2019-02-24T09:55:48.122Z,9.04
2019-02-24T09:56:47.863Z,9.03
2019-02-24T09:57:48.113Z,9.02
2019-02-24T09:58:47.847Z,8.94
2019-02-24T09:59:48.082Z,8.99
2019-02-24T10:00:48.073Z,9
2019-02-24T10:01:47.844Z,9
2019-02-24T10:02:47.813Z,9
2019-02-24T10:03:48.061Z,8.85
2019-02-24T10:04:47.558Z,8.84
2019-02-24T10:05:47.781Z,8.91
2019-02-24T10:06:48.029Z,8.92
2019-02-24T10:07:47.588Z,8.87
2019-02-24T10:08:47.518Z,8.88
2019-02-24T10:09:48.008Z,8.92
2019-02-24T10:10:47.751Z,8.99
2019-02-24T10:11:47.764Z,8.92
2019-02-24T10:12:47.991Z,8.99
2019-02-24T10:13:47.501Z,9.02
2019-02-24T10:14:47.985Z,9.04
2019-02-24T10:15:47.969Z,9.19
2019-02-24T10:16:47.969Z,9.21
2019-02-24T10:17:47.715Z,9.14
2019-02-24T10:18:47.951Z,9.29
2019-02-24T10:19:47.703Z,9.28
2019-02-24T10:20:47.945Z,9.37
2019-02-24T10:21:47.946Z,9.43
2019-02-24T10:22:47.681Z,9.5
2019-02-24T10:23:47.961Z,9.54
2019-02-24T10:24:47.907Z,9.58
2019-02-24T10:25:47.685Z,9.61
2019-02-24T10:26:47.414Z,9.55
2019-02-24T10:27:47.898Z,9.68
2019-02-24T10:28:49.896Z,9.79
2019-02-24T10:29:47.883Z,9.76
2019-02-24T10:30:47.413Z,9.82
2019-02-24T10:31:47.639Z,9.76
2019-02-24T10:32:47.869Z,9.77
2019-02-24T10:33:47.611Z,9.89
2019-02-24T10:34:47.868Z,9.87
2019-02-24T10:35:47.370Z,9.84
2019-02-24T10:36:47.863Z,9.86
2019-02-24T10:37:47.587Z,10.01
2019-02-24T10:38:47.662Z,10.01
2019-02-24T10:39:47.587Z,10.12
2019-02-24T10:40:47.824Z,10.1
2019-02-24T10:41:47.846Z,10.07
2019-02-24T10:42:47.809Z,10.17
2019-02-24T10:43:47.830Z,10.13
2019-02-24T10:44:47.808Z,10.15
2019-02-24T10:45:47.792Z,10.17
2019-02-24T10:46:47.806Z,10.01
2019-02-24T10:47:47.530Z,10.13
2019-02-24T10:48:47.785Z,10.12
2019-02-24T10:49:47.269Z,10.13
2019-02-24T10:50:47.525Z,10.19
2019-02-24T10:51:47.540Z,10.31
2019-02-24T10:52:47.760Z,10.13
2019-02-24T10:53:47.521Z,10.13
2019-02-24T10:54:47.253Z,10.13
2019-02-24T10:55:47.750Z,10.22
2019-02-24T10:56:47.745Z,10.12
2019-02-24T10:57:47.730Z,10.13
2019-02-24T10:58:47.488Z,10.2
2019-02-24T10:59:47.722Z,10.12
2019-02-24T11:00:47.471Z,10.17
2019-02-24T11:01:47.475Z,10.25
2019-02-24T11:02:47.723Z,10.4
2019-02-24T11:03:47.464Z,10.44
2019-02-24T11:04:48.945Z,10.56
2019-02-24T11:05:47.700Z,10.53
2019-02-24T11:06:47.447Z,10.59
2019-02-24T11:07:47.700Z,10.63
2019-02-24T11:08:47.188Z,10.72
2019-02-24T11:09:47.434Z,10.69
2019-02-24T11:10:47.719Z,10.76
2019-02-24T11:11:47.412Z,10.76
2019-02-24T11:12:47.663Z,10.79
2019-02-24T11:13:47.660Z,10.81
2019-02-24T11:14:47.409Z,10.75
2019-02-24T11:15:47.398Z,10.9
2019-02-24T11:16:47.626Z,10.9
2019-02-24T11:17:47.158Z,10.94
2019-02-24T11:18:47.616Z,10.96
2019-02-24T11:19:47.640Z,11.04
2019-02-24T11:20:47.370Z,10.97
2019-02-24T11:21:47.403Z,10.94
2019-02-24T11:22:47.614Z,11
2019-02-24T11:23:47.601Z,11.08
2019-02-24T11:24:47.612Z,11.02
2019-02-24T11:25:47.381Z,11.04
2019-02-24T11:26:47.608Z,11.15
2019-02-24T11:27:47.371Z,11.12
2019-02-24T11:28:47.580Z,11.19
2019-02-24T11:29:47.333Z,11.14
2019-02-24T11:30:47.311Z,11.23
2019-02-24T11:31:47.576Z,11.33
2019-02-24T11:32:47.563Z,11.36
2019-02-24T11:33:47.616Z,11.44
2019-02-24T11:34:47.553Z,11.44
2019-02-24T11:35:47.552Z,11.47
2019-02-24T11:36:47.302Z,11.47
2019-02-24T11:37:47.560Z,11.5
2019-02-24T11:38:47.550Z,11.48
2019-02-24T11:39:47.071Z,11.47
2019-02-24T11:40:47.780Z,11.59
2019-02-24T11:41:47.294Z,11.6
2019-02-24T11:42:47.265Z,11.69
2019-02-24T11:43:47.522Z,11.7
2019-02-24T11:44:47.265Z,11.8
2019-02-24T11:45:47.274Z,11.8
2019-02-24T11:46:47.512Z,11.91
2019-02-24T11:47:47.526Z,11.84
2019-02-24T11:48:47.502Z,11.84
2019-02-24T11:49:46.999Z,11.77
2019-02-24T11:50:47.258Z,11.83
2019-02-24T11:51:47.544Z,11.83
2019-02-24T11:52:47.482Z,11.81
2019-02-24T11:53:47.224Z,11.81
2019-02-24T11:54:47.000Z,11.84
2019-02-24T11:55:47.529Z,11.81
2019-02-24T11:56:47.241Z,11.9
2019-02-24T11:57:47.218Z,11.88
2019-02-24T11:58:47.471Z,11.86
2019-02-24T11:59:47.470Z,12
2019-02-24T12:00:46.949Z,12
2019-02-24T12:01:51.871Z,12
2019-02-24T12:02:47.211Z,11.94
2019-02-24T12:03:47.484Z,11.91
2019-02-24T12:04:47.463Z,11.99
2019-02-24T12:05:47.434Z,12
2019-02-24T12:06:47.206Z,12.06
2019-02-24T12:07:47.437Z,12.04
2019-02-24T12:08:47.174Z,12.2
2019-02-24T12:09:47.407Z,12.13
2019-02-24T12:10:47.181Z,12.24
2019-02-24T12:11:47.179Z,12.25
2019-02-24T12:12:47.406Z,12.35
2019-02-24T12:13:47.152Z,12.27
2019-02-24T12:14:47.158Z,12.35
2019-02-24T12:15:46.891Z,12.27
2019-02-24T12:16:47.159Z,12.18
2019-02-24T12:17:47.172Z,12.13
2019-02-24T12:18:47.141Z,12.13
2019-02-24T12:19:47.139Z,12.13
2019-02-24T12:20:47.131Z,12.2
2019-02-24T12:21:47.138Z,12.25
2019-02-24T12:22:47.128Z,12.35
2019-02-24T12:23:47.116Z,12.25
2019-02-24T12:24:47.107Z,12.29
2019-02-24T12:25:47.114Z,12.31
2019-02-24T12:26:47.131Z,12.35
2019-02-24T12:27:47.352Z,12.29
2019-02-24T12:28:47.365Z,12.32
2019-02-24T12:29:47.086Z,12.32
2019-02-24T12:30:47.102Z,12.39
2019-02-24T12:31:47.081Z,12.37
2019-02-24T12:32:47.086Z,12.53
2019-02-24T12:33:47.082Z,12.49
2019-02-24T12:34:47.323Z,12.4
2019-02-24T12:35:47.322Z,12.31
2019-02-24T12:36:47.080Z,12.31
2019-02-24T12:37:47.364Z,12.36
2019-02-24T12:38:47.295Z,12.39
2019-02-24T12:39:47.041Z,12.45
2019-02-24T12:40:47.304Z,12.5
2019-02-24T12:41:47.048Z,12.49
2019-02-24T12:42:46.785Z,12.53
2019-02-24T12:43:47.294Z,12.5
2019-02-24T12:44:47.062Z,12.57
2019-02-24T12:45:47.281Z,12.64
2019-02-24T12:46:47.299Z,12.61
2019-02-24T12:47:47.280Z,12.7
2019-02-24T12:48:47.006Z,12.7
2019-02-24T12:49:47.014Z,12.75
2019-02-24T12:50:47.254Z,12.8
2019-02-24T12:51:47.268Z,12.91
2019-02-24T12:52:47.265Z,12.87
2019-02-24T12:53:46.988Z,12.94
2019-02-24T12:54:47.251Z,12.79
2019-02-24T12:55:46.981Z,12.8
2019-02-24T12:56:46.983Z,12.9
2019-02-24T12:57:47.232Z,12.98
2019-02-24T12:58:47.283Z,13.04
2019-02-24T12:59:46.960Z,13.01
2019-02-24T13:00:47.227Z,13.11
2019-02-24T13:01:48.845Z,13.28
2019-02-24T13:02:46.966Z,13.31
2019-02-24T13:03:47.236Z,13.37
2019-02-24T13:04:46.955Z,13.39
2019-02-24T13:05:47.205Z,13.39
2019-02-24T13:06:46.955Z,13.44
2019-02-24T13:07:46.965Z,13.49
2019-02-24T13:08:46.954Z,13.54
2019-02-24T13:09:46.964Z,13.65
2019-02-24T13:10:46.924Z,13.74
2019-02-24T13:11:47.787Z,13.7
2019-02-24T13:12:47.181Z,13.78
2019-02-24T13:13:47.174Z,13.9
2019-02-24T13:14:46.915Z,13.86
2019-02-24T13:15:47.169Z,13.9